sensor_id;sensor_type;location;lat;lon;timestamp;pressure;altitude;pressure_sealevel;temperature;humidity
63552;BME280;49698;48.072;7.800;2023-04-24T00:01:44;98486.19;;;11.64;78.47
63552;BME280;49698;48.072;7.800;2023-04-24T00:04:14;98484.28;;;11.64;78.56
63552;BME280;49698;48.072;7.800;2023-04-24T00:06:43;98493.94;;;11.65;78.56
63552;BME280;49698;48.072;7.800;2023-04-24T00:09:16;98500.63;;;11.68;78.46
63552;BME280;49698;48.072;7.800;2023-04-24T00:11:44;98487.66;;;11.70;78.63
63552;BME280;49698;48.072;7.800;2023-04-24T00:14:12;98499.22;;;11.70;78.47
63552;BME280;49698;48.072;7.800;2023-04-24T00:16:39;98486.84;;;11.69;78.47
63552;BME280;49698;48.072;7.800;2023-04-24T00:19:09;98482.09;;;11.66;78.72
63552;BME280;49698;48.072;7.800;2023-04-24T00:21:37;98485.09;;;11.65;78.80
63552;BME280;49698;48.072;7.800;2023-04-24T00:24:06;98490.00;;;11.63;78.51
63552;BME280;49698;48.072;7.800;2023-04-24T00:26:35;98491.91;;;11.62;78.80
63552;BME280;49698;48.072;7.800;2023-04-24T00:29:04;98495.38;;;11.63;78.66
63552;BME280;49698;48.072;7.800;2023-04-24T00:31:32;98495.66;;;11.61;78.60
63552;BME280;49698;48.072;7.800;2023-04-24T00:34:01;98493.81;;;11.62;78.59
63552;BME280;49698;48.072;7.800;2023-04-24T00:36:31;98499.66;;;11.64;78.95
63552;BME280;49698;48.072;7.800;2023-04-24T00:38:59;98498.53;;;11.65;78.50
63552;BME280;49698;48.072;7.800;2023-04-24T00:41:27;98495.56;;;11.66;78.45
63552;BME280;49698;48.072;7.800;2023-04-24T00:43:55;98488.72;;;11.69;78.53
63552;BME280;49698;48.072;7.800;2023-04-24T00:46:23;98491.41;;;11.69;78.32
63552;BME280;49698;48.072;7.800;2023-04-24T00:48:52;98496.97;;;11.72;78.44
63552;BME280;49698;48.072;7.800;2023-04-24T00:51:20;98492.38;;;11.73;78.26
63552;BME280;49698;48.072;7.800;2023-04-24T00:53:49;98484.81;;;11.75;78.20
63552;BME280;49698;48.072;7.800;2023-04-24T00:56:17;98491.31;;;11.74;78.18
63552;BME280;49698;48.072;7.800;2023-04-24T00:58:47;98486.22;;;11.72;78.15
63552;BME280;49698;48.072;7.800;2023-04-24T01:01:15;98481.16;;;11.71;78.38
63552;BME280;49698;48.072;7.800;2023-04-24T01:03:43;98483.34;;;11.69;78.24
63552;BME280;49698;48.072;7.800;2023-04-24T01:06:12;98476.72;;;11.66;78.64
63552;BME280;49698;48.072;7.800;2023-04-24T01:08:41;98482.38;;;11.65;78.41
63552;BME280;49698;48.072;7.800;2023-04-24T01:11:11;98481.91;;;11.63;78.38
63552;BME280;49698;48.072;7.800;2023-04-24T01:13:39;98490.94;;;11.58;78.32
63552;BME280;49698;48.072;7.800;2023-04-24T01:16:09;98483.78;;;11.54;78.42
63552;BME280;49698;48.072;7.800;2023-04-24T01:18:37;98482.81;;;11.49;78.63
63552;BME280;49698;48.072;7.800;2023-04-24T01:21:05;98481.84;;;11.45;78.77
63552;BME280;49698;48.072;7.800;2023-04-24T01:23:37;98479.78;;;11.42;79.24
63552;BME280;49698;48.072;7.800;2023-04-24T01:26:06;98477.91;;;11.43;78.82
63552;BME280;49698;48.072;7.800;2023-04-24T01:28:34;98484.84;;;11.44;78.98
63552;BME280;49698;48.072;7.800;2023-04-24T01:31:04;98468.38;;;11.45;78.86
63552;BME280;49698;48.072;7.800;2023-04-24T01:33:33;98479.66;;;11.47;78.82
63552;BME280;49698;48.072;7.800;2023-04-24T01:36:01;98465.69;;;11.45;78.93
63552;BME280;49698;48.072;7.800;2023-04-24T01:38:29;98475.66;;;11.45;78.84
63552;BME280;49698;48.072;7.800;2023-04-24T01:41:00;98465.53;;;11.42;78.71
63552;BME280;49698;48.072;7.800;2023-04-24T01:43:28;98468.03;;;11.38;78.94
63552;BME280;49698;48.072;7.800;2023-04-24T01:45:57;98472.47;;;11.34;79.22
63552;BME280;49698;48.072;7.800;2023-04-24T01:48:26;98473.09;;;11.31;79.46
63552;BME280;49698;48.072;7.800;2023-04-24T01:50:54;98476.41;;;11.28;79.27
63552;BME280;49698;48.072;7.800;2023-04-24T01:53:23;98480.19;;;11.27;79.24
63552;BME280;49698;48.072;7.800;2023-04-24T01:55:51;98476.41;;;11.28;79.74
63552;BME280;49698;48.072;7.800;2023-04-24T01:58:20;98483.69;;;11.27;79.57
63552;BME280;49698;48.072;7.800;2023-04-24T02:00:49;98484.16;;;11.30;79.77
63552;BME280;49698;48.072;7.800;2023-04-24T02:03:17;98473.38;;;11.30;79.38
63552;BME280;49698;48.072;7.800;2023-04-24T02:05:47;98473.56;;;11.33;79.68
63552;BME280;49698;48.072;7.800;2023-04-24T02:08:15;98478.66;;;11.35;79.25
63552;BME280;49698;48.072;7.800;2023-04-24T02:10:43;98474.06;;;11.35;79.62
63552;BME280;49698;48.072;7.800;2023-04-24T02:13:11;98474.53;;;11.37;79.69
63552;BME280;49698;48.072;7.800;2023-04-24T02:15:40;98469.16;;;11.37;80.35
63552;BME280;49698;48.072;7.800;2023-04-24T02:18:08;98478.34;;;11.36;81.10
63552;BME280;49698;48.072;7.800;2023-04-24T02:20:38;98491.63;;;11.33;81.42
63552;BME280;49698;48.072;7.800;2023-04-24T02:23:06;98482.56;;;11.29;81.93
63552;BME280;49698;48.072;7.800;2023-04-24T02:25:34;98485.09;;;11.25;81.99
63552;BME280;49698;48.072;7.800;2023-04-24T02:28:01;98491.88;;;11.22;82.50
63552;BME280;49698;48.072;7.800;2023-04-24T02:30:29;98480.63;;;11.20;82.80
63552;BME280;49698;48.072;7.800;2023-04-24T02:32:59;98479.84;;;11.20;82.83
63552;BME280;49698;48.072;7.800;2023-04-24T02:35:27;98480.94;;;11.19;83.03
63552;BME280;49698;48.072;7.800;2023-04-24T02:37:55;98492.78;;;11.18;82.55
63552;BME280;49698;48.072;7.800;2023-04-24T02:40:23;98498.78;;;11.15;82.90
63552;BME280;49698;48.072;7.800;2023-04-24T02:42:51;98500.69;;;11.14;83.03
63552;BME280;49698;48.072;7.800;2023-04-24T02:45:18;98501.00;;;11.13;82.83
63552;BME280;49698;48.072;7.800;2023-04-24T02:47:46;98496.41;;;11.13;82.99
63552;BME280;49698;48.072;7.800;2023-04-24T02:50:16;98497.22;;;11.14;83.13
63552;BME280;49698;48.072;7.800;2023-04-24T02:52:44;98503.09;;;11.16;82.98
63552;BME280;49698;48.072;7.800;2023-04-24T02:55:12;98498.19;;;11.18;82.79
63552;BME280;49698;48.072;7.800;2023-04-24T02:57:40;98499.47;;;11.20;82.62
63552;BME280;49698;48.072;7.800;2023-04-24T03:00:09;98493.75;;;11.22;82.31
63552;BME280;49698;48.072;7.800;2023-04-24T03:02:38;98485.41;;;11.23;82.45
63552;BME280;49698;48.072;7.800;2023-04-24T03:05:06;98493.16;;;11.25;82.10
63552;BME280;49698;48.072;7.800;2023-04-24T03:07:36;98490.97;;;11.27;82.53
63552;BME280;49698;48.072;7.800;2023-04-24T03:10:06;98490.97;;;11.27;82.34
63552;BME280;49698;48.072;7.800;2023-04-24T03:12:34;98487.94;;;11.29;82.11
63552;BME280;49698;48.072;7.800;2023-04-24T03:15:02;98483.38;;;11.29;82.41
63552;BME280;49698;48.072;7.800;2023-04-24T03:17:30;98484.94;;;11.30;81.96
63552;BME280;49698;48.072;7.800;2023-04-24T03:19:58;98488.75;;;11.29;82.40
63552;BME280;49698;48.072;7.800;2023-04-24T03:22:26;98481.78;;;11.28;82.68
63552;BME280;49698;48.072;7.800;2023-04-24T03:24:55;98486.38;;;11.27;82.60
63552;BME280;49698;48.072;7.800;2023-04-24T03:27:24;98485.09;;;11.25;83.07
63552;BME280;49698;48.072;7.800;2023-04-24T03:30:01;98490.47;;;11.25;83.00
63552;BME280;49698;48.072;7.800;2023-04-24T03:32:39;98498.53;;;11.25;83.28
63552;BME280;49698;48.072;7.800;2023-04-24T03:35:09;98508.00;;;11.22;83.66
63552;BME280;49698;48.072;7.800;2023-04-24T03:37:38;98508.31;;;11.21;83.51
63552;BME280;49698;48.072;7.800;2023-04-24T03:40:25;98521.28;;;11.19;83.86
63552;BME280;49698;48.072;7.800;2023-04-24T03:42:57;98521.28;;;11.19;84.39
63552;BME280;49698;48.072;7.800;2023-04-24T03:45:25;98526.19;;;11.17;84.94
63552;BME280;49698;48.072;7.800;2023-04-24T03:47:53;98538.66;;;11.13;85.59
63552;BME280;49698;48.072;7.800;2023-04-24T03:50:21;98547.66;;;11.08;85.78
63552;BME280;49698;48.072;7.800;2023-04-24T03:52:50;98545.88;;;11.04;86.59
63552;BME280;49698;48.072;7.800;2023-04-24T03:55:30;98543.31;;;10.98;87.46
63552;BME280;49698;48.072;7.800;2023-04-24T03:57:59;98535.38;;;10.93;87.66
63552;BME280;49698;48.072;7.800;2023-04-24T04:00:27;98533.88;;;10.87;88.52
63552;BME280;49698;48.072;7.800;2023-04-24T04:03:15;98545.88;;;10.81;89.05
63552;BME280;49698;48.072;7.800;2023-04-24T04:05:43;98546.63;;;10.73;89.57
63552;BME280;49698;48.072;7.800;2023-04-24T04:08:11;98561.75;;;10.69;89.92
63552;BME280;49698;48.072;7.800;2023-04-24T04:10:40;98563.94;;;10.67;90.53
63552;BME280;49698;48.072;7.800;2023-04-24T04:13:08;98562.38;;;10.66;90.41
63552;BME280;49698;48.072;7.800;2023-04-24T04:15:37;98576.91;;;10.65;90.28
63552;BME280;49698;48.072;7.800;2023-04-24T04:18:05;98582.88;;;10.62;90.22
63552;BME280;49698;48.072;7.800;2023-04-24T04:20:33;98585.25;;;10.63;90.29
63552;BME280;49698;48.072;7.800;2023-04-24T04:23:01;98590.94;;;10.62;90.31
63552;BME280;49698;48.072;7.800;2023-04-24T04:25:43;98596.59;;;10.60;90.52
63552;BME280;49698;48.072;7.800;2023-04-24T04:28:11;98602.28;;;10.59;90.45
63552;BME280;49698;48.072;7.800;2023-04-24T04:30:39;98610.66;;;10.57;90.59
63552;BME280;49698;48.072;7.800;2023-04-24T04:33:08;98609.84;;;10.57;90.43
63552;BME280;49698;48.072;7.800;2023-04-24T04:35:37;98606.38;;;10.56;90.20
63552;BME280;49698;48.072;7.800;2023-04-24T04:38:05;98612.53;;;10.57;90.83
63552;BME280;49698;48.072;7.800;2023-04-24T04:40:43;98617.31;;;10.60;90.56
63552;BME280;49698;48.072;7.800;2023-04-24T04:43:12;98613.50;;;10.61;90.23
63552;BME280;49698;48.072;7.800;2023-04-24T04:45:47;98623.97;;;10.62;90.00
63552;BME280;49698;48.072;7.800;2023-04-24T04:48:39;98622.88;;;10.63;90.39
63552;BME280;49698;48.072;7.800;2023-04-24T04:51:07;98634.94;;;10.66;89.80
63552;BME280;49698;48.072;7.800;2023-04-24T04:53:35;98633.81;;;10.67;90.16
63552;BME280;49698;48.072;7.800;2023-04-24T04:56:05;98637.00;;;10.69;90.12
63552;BME280;49698;48.072;7.800;2023-04-24T04:58:38;98633.22;;;10.70;89.96
63552;BME280;49698;48.072;7.800;2023-04-24T05:01:09;98631.00;;;10.72;89.95
63552;BME280;49698;48.072;7.800;2023-04-24T05:03:41;98638.78;;;10.73;89.82
63552;BME280;49698;48.072;7.800;2023-04-24T05:06:12;98647.84;;;10.77;89.54
63552;BME280;49698;48.072;7.800;2023-04-24T05:08:40;98647.53;;;10.79;89.33
63552;BME280;49698;48.072;7.800;2023-04-24T05:11:16;98656.69;;;10.78;89.54
63552;BME280;49698;48.072;7.800;2023-04-24T05:13:44;98662.06;;;10.78;89.13
63552;BME280;49698;48.072;7.800;2023-04-24T05:16:19;98660.50;;;10.77;89.05
63552;BME280;49698;48.072;7.800;2023-04-24T05:18:48;98669.94;;;10.74;89.49
63552;BME280;49698;48.072;7.800;2023-04-24T05:21:21;98681.81;;;10.73;89.28
63552;BME280;49698;48.072;7.800;2023-04-24T05:23:51;98663.28;;;10.72;89.48
63552;BME280;49698;48.072;7.800;2023-04-24T05:26:34;98655.53;;;10.70;89.72
63552;BME280;49698;48.072;7.800;2023-04-24T05:29:03;98660.91;;;10.70;89.54
63552;BME280;49698;48.072;7.800;2023-04-24T05:31:32;98667.66;;;10.68;89.04
63552;BME280;49698;48.072;7.800;2023-04-24T05:34:00;98664.50;;;10.66;89.65
63552;BME280;49698;48.072;7.800;2023-04-24T05:36:28;98679.63;;;10.62;89.36
63552;BME280;49698;48.072;7.800;2023-04-24T05:38:56;98685.00;;;10.62;89.82
63552;BME280;49698;48.072;7.800;2023-04-24T05:41:25;98687.19;;;10.60;89.30
63552;BME280;49698;48.072;7.800;2023-04-24T05:43:54;98689.38;;;10.58;89.97
63552;BME280;49698;48.072;7.800;2023-04-24T05:46:22;98693.16;;;10.57;89.28
63552;BME280;49698;48.072;7.800;2023-04-24T05:48:50;98697.44;;;10.58;89.35
63552;BME280;49698;48.072;7.800;2023-04-24T05:51:18;98705.19;;;10.59;89.06
63552;BME280;49698;48.072;7.800;2023-04-24T05:53:47;98704.88;;;10.61;89.17
63552;BME280;49698;48.072;7.800;2023-04-24T05:56:15;98709.38;;;10.65;88.87
63552;BME280;49698;48.072;7.800;2023-04-24T05:58:43;98707.69;;;10.69;88.71
63552;BME280;49698;48.072;7.800;2023-04-24T06:01:13;98708.97;;;10.72;88.25
63552;BME280;49698;48.072;7.800;2023-04-24T06:03:44;98714.84;;;10.74;87.78
63552;BME280;49698;48.072;7.800;2023-04-24T06:06:13;98715.03;;;10.77;87.59
63552;BME280;49698;48.072;7.800;2023-04-24T06:08:41;98720.63;;;10.81;87.15
63552;BME280;49698;48.072;7.800;2023-04-24T06:11:10;98722.41;;;10.86;86.68
63552;BME280;49698;48.072;7.800;2023-04-24T06:13:39;98725.75;;;10.91;86.39
63552;BME280;49698;48.072;7.800;2023-04-24T06:16:43;98731.06;;;10.96;85.23
63552;BME280;49698;48.072;7.800;2023-04-24T06:19:24;98738.09;;;11.06;85.44
63552;BME280;49698;48.072;7.800;2023-04-24T06:21:54;98743.66;;;11.23;84.76
63552;BME280;49698;48.072;7.800;2023-04-24T06:24:22;98744.47;;;11.46;83.99
63552;BME280;49698;48.072;7.800;2023-04-24T06:26:51;98738.25;;;11.60;83.54
63552;BME280;49698;48.072;7.800;2023-04-24T06:29:19;98752.06;;;11.67;83.29
63552;BME280;49698;48.072;7.800;2023-04-24T06:31:48;98751.84;;;11.77;83.19
63552;BME280;49698;48.072;7.800;2023-04-24T06:34:16;98760.91;;;11.81;82.96
63552;BME280;49698;48.072;7.800;2023-04-24T06:36:46;98759.50;;;11.84;82.73
63552;BME280;49698;48.072;7.800;2023-04-24T06:39:14;98772.69;;;11.85;82.61
63552;BME280;49698;48.072;7.800;2023-04-24T06:41:42;98772.69;;;11.85;82.96
63552;BME280;49698;48.072;7.800;2023-04-24T06:44:18;98767.88;;;11.82;82.83
63552;BME280;49698;48.072;7.800;2023-04-24T06:46:46;98766.38;;;11.76;82.60
63552;BME280;49698;48.072;7.800;2023-04-24T06:49:15;98780.59;;;11.68;82.27
63552;BME280;49698;48.072;7.800;2023-04-24T06:51:44;98783.88;;;11.65;82.17
63552;BME280;49698;48.072;7.800;2023-04-24T06:54:12;98786.56;;;11.65;81.62
63552;BME280;49698;48.072;7.800;2023-04-24T06:56:40;98788.28;;;11.61;80.48
63552;BME280;49698;48.072;7.800;2023-04-24T06:59:08;98789.38;;;11.60;80.12
63552;BME280;49698;48.072;7.800;2023-04-24T07:01:36;98789.56;;;11.63;80.03
63552;BME280;49698;48.072;7.800;2023-04-24T07:04:04;98782.28;;;11.64;79.76
63552;BME280;49698;48.072;7.800;2023-04-24T07:06:35;98792.75;;;11.65;79.46
63552;BME280;49698;48.072;7.800;2023-04-24T07:09:04;98793.66;;;11.61;79.09
63552;BME280;49698;48.072;7.800;2023-04-24T07:11:32;98790.44;;;11.50;79.28
63552;BME280;49698;48.072;7.800;2023-04-24T07:14:00;98790.94;;;11.38;78.62
63552;BME280;49698;48.072;7.800;2023-04-24T07:16:29;98801.22;;;11.36;78.17
63552;BME280;49698;48.072;7.800;2023-04-24T07:18:57;98807.66;;;11.49;78.42
63552;BME280;49698;48.072;7.800;2023-04-24T07:21:25;98809.72;;;11.66;77.72
63552;BME280;49698;48.072;7.800;2023-04-24T07:23:55;98813.88;;;11.86;77.09
63552;BME280;49698;48.072;7.800;2023-04-24T07:26:23;98812.38;;;12.02;75.78
63552;BME280;49698;48.072;7.800;2023-04-24T07:28:51;98815.81;;;12.16;74.93
63552;BME280;49698;48.072;7.800;2023-04-24T07:31:19;98816.09;;;12.37;74.43
63552;BME280;49698;48.072;7.800;2023-04-24T07:33:47;98821.63;;;12.63;73.29
63552;BME280;49698;48.072;7.800;2023-04-24T07:36:16;98823.34;;;12.99;71.91
63552;BME280;49698;48.072;7.800;2023-04-24T07:38:45;98817.63;;;13.40;70.58
63552;BME280;49698;48.072;7.800;2023-04-24T07:41:15;98822.88;;;13.72;68.59
63552;BME280;49698;48.072;7.800;2023-04-24T07:43:43;98823.69;;;13.72;67.17
63552;BME280;49698;48.072;7.800;2023-04-24T07:46:12;98827.47;;;13.54;67.19
63552;BME280;49698;48.072;7.800;2023-04-24T07:48:40;98828.09;;;13.33;67.99
63552;BME280;49698;48.072;7.800;2023-04-24T07:51:08;98829.72;;;13.12;67.51
63552;BME280;49698;48.072;7.800;2023-04-24T07:53:37;98832.53;;;12.89;68.34
63552;BME280;49698;48.072;7.800;2023-04-24T07:56:06;98835.16;;;12.72;68.86
63552;BME280;49698;48.072;7.800;2023-04-24T07:58:35;98847.00;;;12.62;69.29
63552;BME280;49698;48.072;7.800;2023-04-24T08:01:03;98848.28;;;12.65;68.92
63552;BME280;49698;48.072;7.800;2023-04-24T08:03:31;98850.53;;;12.71;67.78
63552;BME280;49698;48.072;7.800;2023-04-24T08:05:59;98844.19;;;12.76;66.31
63552;BME280;49698;48.072;7.800;2023-04-24T08:08:29;98858.47;;;12.77;64.77
63552;BME280;49698;48.072;7.800;2023-04-24T08:10:57;98864.63;;;12.68;63.55
63552;BME280;49698;48.072;7.800;2023-04-24T08:13:25;98867.16;;;12.65;63.79
63552;BME280;49698;48.072;7.800;2023-04-24T08:15:56;98875.72;;;12.67;62.79
63552;BME280;49698;48.072;7.800;2023-04-24T08:18:24;98875.78;;;12.76;62.50
63552;BME280;49698;48.072;7.800;2023-04-24T08:20:52;98886.34;;;12.94;62.63
63552;BME280;49698;48.072;7.800;2023-04-24T08:23:20;98893.66;;;13.03;62.81
63552;BME280;49698;48.072;7.800;2023-04-24T08:25:48;98888.28;;;13.03;62.61
63552;BME280;49698;48.072;7.800;2023-04-24T08:28:16;98900.28;;;12.96;61.13
63552;BME280;49698;48.072;7.800;2023-04-24T08:30:46;98913.88;;;12.83;59.31
63552;BME280;49698;48.072;7.800;2023-04-24T08:33:16;98900.84;;;12.76;58.45
63552;BME280;49698;48.072;7.800;2023-04-24T08:35:44;98912.22;;;12.73;58.51
63552;BME280;49698;48.072;7.800;2023-04-24T08:38:12;98903.06;;;12.74;58.68
63552;BME280;49698;48.072;7.800;2023-04-24T08:40:40;98903.75;;;12.88;58.17
63552;BME280;49698;48.072;7.800;2023-04-24T08:43:08;98910.31;;;13.05;57.04
63552;BME280;49698;48.072;7.800;2023-04-24T08:45:37;98912.53;;;13.25;56.68
63552;BME280;49698;48.072;7.800;2023-04-24T08:48:06;98912.56;;;13.42;56.51
63552;BME280;49698;48.072;7.800;2023-04-24T08:50:38;98918.03;;;13.60;55.72
63552;BME280;49698;48.072;7.800;2023-04-24T08:53:09;98915.50;;;13.63;54.84
63552;BME280;49698;48.072;7.800;2023-04-24T08:55:37;98918.66;;;13.57;54.07
63552;BME280;49698;48.072;7.800;2023-04-24T08:58:06;98918.31;;;13.58;53.68
63552;BME280;49698;48.072;7.800;2023-04-24T09:00:35;98926.75;;;13.65;53.36
63552;BME280;49698;48.072;7.800;2023-04-24T09:03:04;98930.41;;;13.61;53.52
63552;BME280;49698;48.072;7.800;2023-04-24T09:05:33;98939.00;;;13.63;53.61
63552;BME280;49698;48.072;7.800;2023-04-24T09:08:04;98925.00;;;13.61;53.19
63552;BME280;49698;48.072;7.800;2023-04-24T09:10:34;98939.56;;;13.42;52.82
63552;BME280;49698;48.072;7.800;2023-04-24T09:13:03;98939.53;;;13.34;53.16
63552;BME280;49698;48.072;7.800;2023-04-24T09:15:31;98936.66;;;13.30;52.95
63552;BME280;49698;48.072;7.800;2023-04-24T09:17:59;98944.16;;;13.33;52.54
63552;BME280;49698;48.072;7.800;2023-04-24T09:20:30;98952.88;;;13.39;52.16
63552;BME280;49698;48.072;7.800;2023-04-24T09:22:58;98950.19;;;13.39;52.34
63552;BME280;49698;48.072;7.800;2023-04-24T09:25:32;98955.25;;;13.32;52.26
63552;BME280;49698;48.072;7.800;2023-04-24T09:28:01;98946.84;;;13.33;52.29
63552;BME280;49698;48.072;7.800;2023-04-24T09:30:29;98937.75;;;13.69;52.41
63552;BME280;49698;48.072;7.800;2023-04-24T09:33:14;98944.94;;;14.08;51.46
63552;BME280;49698;48.072;7.800;2023-04-24T09:35:42;98945.94;;;14.21;49.82
63552;BME280;49698;48.072;7.800;2023-04-24T09:38:16;98952.59;;;14.15;49.94
63552;BME280;49698;48.072;7.800;2023-04-24T09:40:45;98952.09;;;13.95;49.54
63552;BME280;49698;48.072;7.800;2023-04-24T09:43:13;98955.88;;;13.77;49.87
63552;BME280;49698;48.072;7.800;2023-04-24T09:45:41;98963.19;;;13.85;49.29
63552;BME280;49698;48.072;7.800;2023-04-24T09:48:10;98955.75;;;13.82;49.97
63552;BME280;49698;48.072;7.800;2023-04-24T09:50:38;98969.06;;;13.79;49.67
63552;BME280;49698;48.072;7.800;2023-04-24T09:53:06;98966.97;;;13.67;50.32
63552;BME280;49698;48.072;7.800;2023-04-24T09:55:39;98972.47;;;13.53;50.14
63552;BME280;49698;48.072;7.800;2023-04-24T09:58:08;98977.06;;;13.44;49.70
63552;BME280;49698;48.072;7.800;2023-04-24T10:00:38;98976.22;;;13.35;49.00
63552;BME280;49698;48.072;7.800;2023-04-24T10:03:06;98972.09;;;13.37;49.10
63552;BME280;49698;48.072;7.800;2023-04-24T10:05:36;98969.47;;;13.55;49.11
63552;BME280;49698;48.072;7.800;2023-04-24T10:08:06;98975.28;;;13.79;48.60
63552;BME280;49698;48.072;7.800;2023-04-24T10:10:38;98969.44;;;14.12;47.56
63552;BME280;49698;48.072;7.800;2023-04-24T10:13:08;98977.75;;;14.33;47.58
63552;BME280;49698;48.072;7.800;2023-04-24T10:15:37;98979.16;;;14.48;47.72
63552;BME280;49698;48.072;7.800;2023-04-24T10:18:05;98981.38;;;14.89;48.21
63552;BME280;49698;48.072;7.800;2023-04-24T10:20:35;98974.13;;;15.19;46.51
63552;BME280;49698;48.072;7.800;2023-04-24T10:23:04;98984.47;;;15.17;46.14
63552;BME280;49698;48.072;7.800;2023-04-24T10:25:34;98992.97;;;15.07;46.38
63552;BME280;49698;48.072;7.800;2023-04-24T10:28:03;98997.25;;;15.08;46.39
63552;BME280;49698;48.072;7.800;2023-04-24T10:30:34;98998.72;;;14.97;45.93
63552;BME280;49698;48.072;7.800;2023-04-24T10:33:03;98998.56;;;14.84;45.76
63552;BME280;49698;48.072;7.800;2023-04-24T10:35:32;99004.81;;;14.67;45.08
63552;BME280;49698;48.072;7.800;2023-04-24T10:38:05;98997.97;;;14.53;45.00
63552;BME280;49698;48.072;7.800;2023-04-24T10:40:35;98995.91;;;14.50;46.02
63552;BME280;49698;48.072;7.800;2023-04-24T10:43:04;99001.59;;;14.48;46.74
63552;BME280;49698;48.072;7.800;2023-04-24T10:45:36;99011.94;;;14.55;46.98
63552;BME280;49698;48.072;7.800;2023-04-24T10:48:05;99006.84;;;14.44;46.21
63552;BME280;49698;48.072;7.800;2023-04-24T10:50:45;99010.31;;;14.36;46.60
63552;BME280;49698;48.072;7.800;2023-04-24T10:53:15;99000.78;;;14.30;46.69
63552;BME280;49698;48.072;7.800;2023-04-24T10:55:46;99019.06;;;14.25;46.78
63552;BME280;49698;48.072;7.800;2023-04-24T10:58:15;99014.59;;;14.20;46.22
63552;BME280;49698;48.072;7.800;2023-04-24T11:00:55;99009.34;;;14.15;46.59
63552;BME280;49698;48.072;7.800;2023-04-24T11:03:26;99010.94;;;14.16;46.97
63552;BME280;49698;48.072;7.800;2023-04-24T11:05:59;99015.22;;;14.08;46.11
63552;BME280;49698;48.072;7.800;2023-04-24T11:08:30;99019.81;;;14.08;46.96
63552;BME280;49698;48.072;7.800;2023-04-24T11:11:01;99010.47;;;14.14;46.14
63552;BME280;49698;48.072;7.800;2023-04-24T11:14:04;99011.59;;;14.30;46.55
63552;BME280;49698;48.072;7.800;2023-04-24T11:16:37;99007.66;;;14.54;46.25
63552;BME280;49698;48.072;7.800;2023-04-24T11:19:08;99006.88;;;14.79;45.43
63552;BME280;49698;48.072;7.800;2023-04-24T11:21:41;99007.47;;;14.93;45.77
63552;BME280;49698;48.072;7.800;2023-04-24T11:24:27;99011.78;;;14.95;45.76
63552;BME280;49698;48.072;7.800;2023-04-24T11:26:56;99017.97;;;14.86;45.86
63552;BME280;49698;48.072;7.800;2023-04-24T11:29:44;99022.44;;;14.74;45.76
63552;BME280;49698;48.072;7.800;2023-04-24T11:32:18;99011.47;;;14.61;45.28
63552;BME280;49698;48.072;7.800;2023-04-24T11:34:51;99016.53;;;14.46;45.64
63552;BME280;49698;48.072;7.800;2023-04-24T11:37:21;99020.16;;;14.32;46.36
63552;BME280;49698;48.072;7.800;2023-04-24T11:39:51;99020.78;;;14.20;47.03
63552;BME280;49698;48.072;7.800;2023-04-24T11:42:20;99019.34;;;14.06;47.23
63552;BME280;49698;48.072;7.800;2023-04-24T11:44:49;99019.81;;;13.90;47.60
63552;BME280;49698;48.072;7.800;2023-04-24T11:47:18;99015.97;;;13.83;48.08
63552;BME280;49698;48.072;7.800;2023-04-24T11:49:50;99019.81;;;13.90;48.41
63552;BME280;49698;48.072;7.800;2023-04-24T11:52:18;99005.19;;;14.09;48.48
63552;BME280;49698;48.072;7.800;2023-04-24T11:54:48;99003.94;;;14.24;48.30
63552;BME280;49698;48.072;7.800;2023-04-24T11:57:16;99001.13;;;14.29;47.36
63552;BME280;49698;48.072;7.800;2023-04-24T11:59:48;99001.44;;;14.44;46.98
63552;BME280;49698;48.072;7.800;2023-04-24T12:02:24;98998.72;;;14.71;47.12
63552;BME280;49698;48.072;7.800;2023-04-24T12:04:53;98996.63;;;14.93;46.70
63552;BME280;49698;48.072;7.800;2023-04-24T12:07:22;98996.63;;;15.11;46.69
63552;BME280;49698;48.072;7.800;2023-04-24T12:09:55;98995.00;;;15.10;46.37
63552;BME280;49698;48.072;7.800;2023-04-24T12:12:25;99002.69;;;14.90;46.76
63552;BME280;49698;48.072;7.800;2023-04-24T12:14:56;98998.56;;;14.67;46.99
63552;BME280;49698;48.072;7.800;2023-04-24T12:17:26;99004.47;;;14.52;47.71
63552;BME280;49698;48.072;7.800;2023-04-24T12:19:58;98999.56;;;14.54;48.52
63552;BME280;49698;48.072;7.800;2023-04-24T12:22:27;98998.13;;;14.56;48.24
63552;BME280;49698;48.072;7.800;2023-04-24T12:24:57;98993.66;;;14.60;48.51
63552;BME280;49698;48.072;7.800;2023-04-24T12:27:25;99002.38;;;14.75;47.62
63552;BME280;49698;48.072;7.800;2023-04-24T12:29:53;98996.09;;;15.26;47.05
63552;BME280;49698;48.072;7.800;2023-04-24T12:32:22;98993.69;;;16.01;46.58
63552;BME280;49698;48.072;7.800;2023-04-24T12:34:55;98999.59;;;16.66;44.83
63552;BME280;49698;48.072;7.800;2023-04-24T12:37:24;98988.91;;;17.03;43.68
63552;BME280;49698;48.072;7.800;2023-04-24T12:39:59;99001.66;;;17.48;43.01
63552;BME280;49698;48.072;7.800;2023-04-24T12:42:29;98995.75;;;17.46;42.02
63552;BME280;49698;48.072;7.800;2023-04-24T12:44:58;98985.78;;;17.38;43.16
63552;BME280;49698;48.072;7.800;2023-04-24T12:47:28;98979.22;;;17.26;42.00
63552;BME280;49698;48.072;7.800;2023-04-24T12:49:57;98978.72;;;17.00;42.21
63552;BME280;49698;48.072;7.800;2023-04-24T12:52:28;98975.94;;;16.87;43.42
63552;BME280;49698;48.072;7.800;2023-04-24T12:54:57;98972.75;;;16.73;43.56
63552;BME280;49698;48.072;7.800;2023-04-24T12:57:27;98979.63;;;16.50;43.42
63552;BME280;49698;48.072;7.800;2023-04-24T12:59:57;98969.44;;;16.26;43.72
63552;BME280;49698;48.072;7.800;2023-04-24T13:02:27;98974.66;;;16.10;44.09
63552;BME280;49698;48.072;7.800;2023-04-24T13:04:57;98963.09;;;16.01;44.36
63552;BME280;49698;48.072;7.800;2023-04-24T13:07:26;98959.25;;;16.02;44.32
63552;BME280;49698;48.072;7.800;2023-04-24T13:09:55;98961.66;;;16.03;44.44
63552;BME280;49698;48.072;7.800;2023-04-24T13:12:24;98960.72;;;15.99;43.83
63552;BME280;49698;48.072;7.800;2023-04-24T13:14:53;98960.31;;;15.88;42.81